sensor_id;sensor_type;location;lat;lon;timestamp;pressure;altitude;pressure_sealevel;temperature;humidity
19759;BME280;10038;42.662;23.278;2023-08-08T00:00:30;163166.03;;;16.96;100.00
19759;BME280;10038;42.662;23.278;2023-08-08T00:02:57;163163.34;;;16.95;100.00
19759;BME280;10038;42.662;23.278;2023-08-08T00:05:24;163154.00;;;16.91;98.52
19759;BME280;10038;42.662;23.278;2023-08-08T00:07:51;163147.31;;;16.89;97.91
19759;BME280;10038;42.662;23.278;2023-08-08T00:10:18;163119.19;;;16.78;98.54
19759;BME280;10038;42.662;23.278;2023-08-08T00:12:45;163091.03;;;16.68;97.85
19759;BME280;10038;42.662;23.278;2023-08-08T00:15:13;163080.34;;;16.64;97.45
19759;BME280;10038;42.662;23.278;2023-08-08T00:17:40;162989.22;;;16.29;97.80
19759;BME280;10038;42.662;23.278;2023-08-08T00:20:08;163060.28;;;16.56;96.54
19759;BME280;10038;42.662;23.278;2023-08-08T00:22:35;163032.06;;;16.45;97.29
19759;BME280;10038;42.662;23.278;2023-08-08T00:25:02;163050.81;;;16.52;97.27
19759;BME280;10038;42.662;23.278;2023-08-08T00:27:30;162990.56;;;16.30;97.34
19759;BME280;10038;42.662;23.278;2023-08-08T00:29:56;163008.00;;;16.36;97.02
19759;BME280;10038;42.662;23.278;2023-08-08T00:32:25;162971.84;;;16.23;97.09
19759;BME280;10038;42.662;23.278;2023-08-08T00:34:51;162949.09;;;16.14;96.32
19759;BME280;10038;42.662;23.278;2023-08-08T00:37:18;162914.31;;;16.01;96.20
19759;BME280;10038;42.662;23.278;2023-08-08T00:39:45;162973.19;;;16.23;95.90
19759;BME280;10038;42.662;23.278;2023-08-08T00:42:12;162894.19;;;15.93;95.98
19759;BME280;10038;42.662;23.278;2023-08-08T00:44:39;162946.41;;;16.13;96.14
19759;BME280;10038;42.662;23.278;2023-08-08T00:47:06;162953.09;;;16.16;96.01
19759;BME280;10038;42.662;23.278;2023-08-08T00:49:34;162961.13;;;16.19;94.62
19759;BME280;10038;42.662;23.278;2023-08-08T00:52:02;162965.16;;;16.20;94.81
19759;BME280;10038;42.662;23.278;2023-08-08T00:54:29;162894.19;;;15.93;95.39
19759;BME280;10038;42.662;23.278;2023-08-08T00:56:56;162911.63;;;16.00;95.45
19759;BME280;10038;42.662;23.278;2023-08-08T00:59:24;162765.72;;;15.45;94.84
19759;BME280;10038;42.662;23.278;2023-08-08T01:01:51;162957.13;;;16.17;93.69
19759;BME280;10038;42.662;23.278;2023-08-08T01:04:18;162912.97;;;16.01;93.58
19759;BME280;10038;42.662;23.278;2023-08-08T01:06:53;162937.03;;;16.10;94.00
19759;BME280;10038;42.662;23.278;2023-08-08T01:09:24;162954.44;;;16.16;94.40
19759;BME280;10038;42.662;23.278;2023-08-08T01:11:53;162925.00;;;16.05;93.92
19759;BME280;10038;42.662;23.278;2023-08-08T01:14:21;162963.81;;;16.20;94.08
19759;BME280;10038;42.662;23.278;2023-08-08T01:16:51;162958.47;;;16.18;94.14
19759;BME280;10038;42.662;23.278;2023-08-08T01:19:25;162677.41;;;15.12;94.41
19759;BME280;10038;42.662;23.278;2023-08-08T01:21:58;162903.59;;;15.97;94.55
19759;BME280;10038;42.662;23.278;2023-08-08T01:24:29;162927.69;;;16.06;93.94
19759;BME280;10038;42.662;23.278;2023-08-08T01:26:58;162934.38;;;16.09;94.15
19759;BME280;10038;42.662;23.278;2023-08-08T01:29:26;162887.50;;;15.91;93.59
19759;BME280;10038;42.662;23.278;2023-08-08T01:31:53;162888.84;;;15.91;94.30
19759;BME280;10038;42.662;23.278;2023-08-08T01:34:20;162582.47;;;14.76;94.02
19759;BME280;10038;42.662;23.278;2023-08-08T01:36:51;162888.84;;;15.91;94.59
19759;BME280;10038;42.662;23.278;2023-08-08T01:39:25;162916.94;;;16.02;93.74
19759;BME280;10038;42.662;23.278;2023-08-08T01:41:54;162796.53;;;15.57;93.46
19759;BME280;10038;42.662;23.278;2023-08-08T01:44:22;162879.47;;;15.88;94.54
19759;BME280;10038;42.662;23.278;2023-08-08T01:46:52;162863.44;;;15.82;94.78
19759;BME280;10038;42.662;23.278;2023-08-08T01:49:18;162859.41;;;15.80;94.89
19759;BME280;10038;42.662;23.278;2023-08-08T01:51:45;162863.44;;;15.82;93.73
19759;BME280;10038;42.662;23.278;2023-08-08T01:54:13;162844.69;;;15.75;94.04
19759;BME280;10038;42.662;23.278;2023-08-08T01:56:40;162860.75;;;15.81;93.63
19759;BME280;10038;42.662;23.278;2023-08-08T01:59:09;162784.47;;;15.52;94.14
19759;BME280;10038;42.662;23.278;2023-08-08T02:01:36;162884.88;;;15.90;93.53
19759;BME280;10038;42.662;23.278;2023-08-08T02:04:03;162895.53;;;15.94;93.03
19759;BME280;10038;42.662;23.278;2023-08-08T02:06:29;162884.88;;;15.90;92.75
19759;BME280;10038;42.662;23.278;2023-08-08T02:08:56;162882.16;;;15.89;93.16
19759;BME280;10038;42.662;23.278;2023-08-08T02:11:23;162895.53;;;15.94;92.71
19759;BME280;10038;42.662;23.278;2023-08-08T02:13:50;162859.41;;;15.80;92.79
19759;BME280;10038;42.662;23.278;2023-08-08T02:16:18;162542.38;;;14.61;92.96
19759;BME280;10038;42.662;23.278;2023-08-08T02:18:45;162874.13;;;15.86;93.69
19759;BME280;10038;42.662;23.278;2023-08-08T02:21:12;162884.88;;;15.90;93.61
19759;BME280;10038;42.662;23.278;2023-08-08T02:23:39;162891.56;;;15.92;93.19
19759;BME280;10038;42.662;23.278;2023-08-08T02:26:05;162900.88;;;15.96;93.49
19759;BME280;10038;42.662;23.278;2023-08-08T02:28:32;162539.69;;;14.60;93.48
19759;BME280;10038;42.662;23.278;2023-08-08T02:30:59;162619.91;;;14.90;94.16
19759;BME280;10038;42.662;23.278;2023-08-08T02:33:27;162895.53;;;15.94;94.24
19759;BME280;10038;42.662;23.278;2023-08-08T02:35:54;162850.03;;;15.77;94.37
19759;BME280;10038;42.662;23.278;2023-08-08T02:38:21;162874.13;;;15.86;94.33
19759;BME280;10038;42.662;23.278;2023-08-08T02:40:48;162842.03;;;15.74;94.35
19759;BME280;10038;42.662;23.278;2023-08-08T02:43:15;162825.97;;;15.68;94.32
19759;BME280;10038;42.662;23.278;2023-08-08T02:45:42;162848.72;;;15.76;93.90
19759;BME280;10038;42.662;23.278;2023-08-08T02:48:09;162855.41;;;15.79;93.66
19759;BME280;10038;42.662;23.278;2023-08-08T02:50:37;162879.47;;;15.88;93.48
19759;BME280;10038;42.662;23.278;2023-08-08T02:53:04;162788.50;;;15.54;93.26
19759;BME280;10038;42.662;23.278;2023-08-08T02:55:31;162892.91;;;15.93;93.98
19759;BME280;10038;42.662;23.278;2023-08-08T02:57:57;162860.75;;;15.81;94.03
19759;BME280;10038;42.662;23.278;2023-08-08T03:00:24;162859.41;;;15.80;93.92
19759;BME280;10038;42.662;23.278;2023-08-08T03:02:51;162907.63;;;15.99;93.22
19759;BME280;10038;42.662;23.278;2023-08-08T03:05:18;162890.19;;;15.92;93.29
19759;BME280;10038;42.662;23.278;2023-08-08T03:07:46;162805.88;;;15.60;93.10
19759;BME280;10038;42.662;23.278;2023-08-08T03:10:13;162527.66;;;14.55;92.55
19759;BME280;10038;42.662;23.278;2023-08-08T03:12:40;162852.72;;;15.78;92.79
19759;BME280;10038;42.662;23.278;2023-08-08T03:15:08;162908.91;;;15.99;92.79
19759;BME280;10038;42.662;23.278;2023-08-08T03:17:36;162911.63;;;16.00;92.35
19759;BME280;10038;42.662;23.278;2023-08-08T03:20:03;162561.06;;;14.68;91.87
19759;BME280;10038;42.662;23.278;2023-08-08T03:22:31;162807.22;;;15.61;91.35
19759;BME280;10038;42.662;23.278;2023-08-08T03:24:59;162930.31;;;16.07;92.11
19759;BME280;10038;42.662;23.278;2023-08-08T03:27:26;162906.28;;;15.98;92.08
19759;BME280;10038;42.662;23.278;2023-08-08T03:29:53;162903.59;;;15.97;92.57
19759;BME280;10038;42.662;23.278;2023-08-08T03:32:20;162884.88;;;15.90;93.07
19759;BME280;10038;42.662;23.278;2023-08-08T03:34:47;162883.50;;;15.89;93.11
19759;BME280;10038;42.662;23.278;2023-08-08T03:37:14;162870.16;;;15.84;93.36
19759;BME280;10038;42.662;23.278;2023-08-08T03:39:40;162855.41;;;15.79;93.77
19759;BME280;10038;42.662;23.278;2023-08-08T03:42:09;162847.38;;;15.76;94.25
19759;BME280;10038;42.662;23.278;2023-08-08T03:44:36;162840.69;;;15.73;93.66
19759;BME280;10038;42.662;23.278;2023-08-08T03:47:03;162874.13;;;15.86;92.95
19759;BME280;10038;42.662;23.278;2023-08-08T03:49:30;162892.91;;;15.93;92.09
19759;BME280;10038;42.662;23.278;2023-08-08T03:51:57;162911.63;;;16.00;91.81
19759;BME280;10038;42.662;23.278;2023-08-08T03:54:23;162923.63;;;16.05;91.66
19759;BME280;10038;42.662;23.278;2023-08-08T03:56:50;162978.53;;;16.25;90.71
19759;BME280;10038;42.662;23.278;2023-08-08T03:59:18;162950.44;;;16.15;90.56
19759;BME280;10038;42.662;23.278;2023-08-08T04:01:45;162957.13;;;16.17;90.26
19759;BME280;10038;42.662;23.278;2023-08-08T04:04:13;162898.25;;;15.95;90.05
19759;BME280;10038;42.662;23.278;2023-08-08T04:06:40;162949.09;;;16.14;89.82
19759;BME280;10038;42.662;23.278;2023-08-08T04:09:06;162959.78;;;16.18;89.35
19759;BME280;10038;42.662;23.278;2023-08-08T04:11:33;162946.41;;;16.13;89.57
19759;BME280;10038;42.662;23.278;2023-08-08T04:14:01;162975.84;;;16.24;89.52
19759;BME280;10038;42.662;23.278;2023-08-08T04:16:29;162989.22;;;16.29;90.22
19759;BME280;10038;42.662;23.278;2023-08-08T04:18:56;162939.72;;;16.11;91.09
19759;BME280;10038;42.662;23.278;2023-08-08T04:21:24;162951.75;;;16.15;91.41
19759;BME280;10038;42.662;23.278;2023-08-08T04:23:54;162775.13;;;15.49;91.55
19759;BME280;10038;42.662;23.278;2023-08-08T04:26:21;162939.72;;;16.11;91.83
19759;BME280;10038;42.662;23.278;2023-08-08T04:28:48;162954.44;;;16.16;91.42
19759;BME280;10038;42.662;23.278;2023-08-08T04:31:14;162954.44;;;16.16;90.29
19759;BME280;10038;42.662;23.278;2023-08-08T04:33:43;162975.84;;;16.24;90.49
19759;BME280;10038;42.662;23.278;2023-08-08T04:36:10;163005.31;;;16.35;89.62
19759;BME280;10038;42.662;23.278;2023-08-08T04:38:36;162997.25;;;16.32;89.35
19759;BME280;10038;42.662;23.278;2023-08-08T04:41:03;163016.03;;;16.39;89.25
19759;BME280;10038;42.662;23.278;2023-08-08T04:43:30;163033.41;;;16.46;88.20
19759;BME280;10038;42.662;23.278;2023-08-08T04:45:57;163072.31;;;16.61;87.33
19759;BME280;10038;42.662;23.278;2023-08-08T04:48:24;163121.84;;;16.79;86.48
19759;BME280;10038;42.662;23.278;2023-08-08T04:50:52;163121.84;;;16.79;85.74
19759;BME280;10038;42.662;23.278;2023-08-08T04:53:19;163077.66;;;16.63;85.79
19759;BME280;10038;42.662;23.278;2023-08-08T04:55:46;163123.19;;;16.80;85.38
19759;BME280;10038;42.662;23.278;2023-08-08T04:58:12;163104.47;;;16.73;86.27
19759;BME280;10038;42.662;23.278;2023-08-08T05:00:39;163125.88;;;16.81;86.00
19759;BME280;10038;42.662;23.278;2023-08-08T05:03:06;162887.50;;;15.91;86.16
19759;BME280;10038;42.662;23.278;2023-08-08T05:05:33;163208.88;;;17.12;84.98
19759;BME280;10038;42.662;23.278;2023-08-08T05:08:01;163270.53;;;17.35;84.19
19759;BME280;10038;42.662;23.278;2023-08-08T05:10:28;163357.66;;;17.68;83.33
19759;BME280;10038;42.662;23.278;2023-08-08T05:12:56;163316.09;;;17.52;83.05
19759;BME280;10038;42.662;23.278;2023-08-08T05:15:23;163270.53;;;17.35;82.93
19759;BME280;10038;42.662;23.278;2023-08-08T05:17:50;163230.31;;;17.20;83.08
19759;BME280;10038;42.662;23.278;2023-08-08T05:20:19;163203.53;;;17.10;82.92
19759;BME280;10038;42.662;23.278;2023-08-08T05:22:46;163249.09;;;17.27;82.74
19759;BME280;10038;42.662;23.278;2023-08-08T05:25:15;163176.78;;;17.00;83.79
19759;BME280;10038;42.662;23.278;2023-08-08T05:27:41;163091.03;;;16.68;84.92
19759;BME280;10038;42.662;23.278;2023-08-08T05:30:09;163231.66;;;17.21;83.44
19759;BME280;10038;42.662;23.278;2023-08-08T05:32:36;163306.69;;;17.49;81.48
19759;BME280;10038;42.662;23.278;2023-08-08T05:35:03;163278.56;;;17.38;80.93
19759;BME280;10038;42.662;23.278;2023-08-08T05:37:30;163428.66;;;17.95;79.58
19759;BME280;10038;42.662;23.278;2023-08-08T05:39:57;163554.66;;;18.42;78.96
19759;BME280;10038;42.662;23.278;2023-08-08T05:42:26;163679.41;;;18.89;77.79
19759;BME280;10038;42.662;23.278;2023-08-08T05:44:53;163802.81;;;19.35;76.09
19759;BME280;10038;42.662;23.278;2023-08-08T05:47:20;163793.41;;;19.32;76.28
19759;BME280;10038;42.662;23.278;2023-08-08T05:49:47;163607.00;;;18.62;78.12
19759;BME280;10038;42.662;23.278;2023-08-08T05:52:13;163431.38;;;17.96;78.70
19759;BME280;10038;42.662;23.278;2023-08-08T05:54:40;163348.25;;;17.64;80.00
19759;BME280;10038;42.662;23.278;2023-08-08T05:57:07;163336.22;;;17.60;80.94
19759;BME280;10038;42.662;23.278;2023-08-08T05:59:35;163079.00;;;16.63;82.28
19759;BME280;10038;42.662;23.278;2023-08-08T06:02:02;163262.47;;;17.32;83.12
19759;BME280;10038;42.662;23.278;2023-08-08T06:04:29;163250.44;;;17.28;83.64
19759;BME280;10038;42.662;23.278;2023-08-08T06:06:56;163255.78;;;17.30;83.90
19759;BME280;10038;42.662;23.278;2023-08-08T06:09:24;163211.56;;;17.13;84.22
19759;BME280;10038;42.662;23.278;2023-08-08T06:11:51;163230.31;;;17.20;84.25
19759;BME280;10038;42.662;23.278;2023-08-08T06:14:18;163300.00;;;17.46;83.87
19759;BME280;10038;42.662;23.278;2023-08-08T06:16:46;163305.34;;;17.48;81.81
19759;BME280;10038;42.662;23.278;2023-08-08T06:19:13;163375.03;;;17.75;81.27
19759;BME280;10038;42.662;23.278;2023-08-08T06:21:41;163408.56;;;17.87;79.86
19759;BME280;10038;42.662;23.278;2023-08-08T06:24:08;163758.53;;;19.19;74.91
19759;BME280;10038;42.662;23.278;2023-08-08T06:26:34;163986.69;;;20.05;70.96
19759;BME280;10038;42.662;23.278;2023-08-08T06:29:01;164241.78;;;21.00;67.54
19759;BME280;10038;42.662;23.278;2023-08-08T06:31:29;164259.28;;;21.07;65.32
19759;BME280;10038;42.662;23.278;2023-08-08T06:33:57;164298.22;;;21.22;63.87
19759;BME280;10038;42.662;23.278;2023-08-08T06:36:24;164372.13;;;21.49;63.00
19759;BME280;10038;42.662;23.278;2023-08-08T06:38:51;164381.53;;;21.53;63.58
19759;BME280;10038;42.662;23.278;2023-08-08T06:41:17;164384.19;;;21.54;62.32
19759;BME280;10038;42.662;23.278;2023-08-08T06:43:44;164349.28;;;21.41;63.12
19759;BME280;10038;42.662;23.278;2023-08-08T06:46:11;164338.56;;;21.37;63.45
19759;BME280;10038;42.662;23.278;2023-08-08T06:48:38;164171.94;;;20.74;65.07
19759;BME280;10038;42.662;23.278;2023-08-08T06:51:06;163860.53;;;19.57;68.10
19759;BME280;10038;42.662;23.278;2023-08-08T06:53:33;164069.91;;;20.36;64.06
19759;BME280;10038;42.662;23.278;2023-08-08T06:56:00;164034.97;;;20.23;60.22
19759;BME280;10038;42.662;23.278;2023-08-08T06:58:27;164279.47;;;21.14;57.84
19759;BME280;10038;42.662;23.278;2023-08-08T07:00:54;164390.91;;;21.56;57.17
19759;BME280;10038;42.662;23.278;2023-08-08T07:03:21;164540.13;;;22.12;56.35
19759;BME280;10038;42.662;23.278;2023-08-08T07:05:48;164787.50;;;23.05;54.48
19759;BME280;10038;42.662;23.278;2023-08-08T07:08:19;164811.72;;;23.14;53.42
19759;BME280;10038;42.662;23.278;2023-08-08T07:10:46;164819.78;;;23.17;54.03
19759;BME280;10038;42.662;23.278;2023-08-08T07:13:13;165020.28;;;23.92;51.53
19759;BME280;10038;42.662;23.278;2023-08-08T07:15:40;164975.88;;;23.76;50.45
19759;BME280;10038;42.662;23.278;2023-08-08T07:18:08;164837.28;;;23.24;50.55
19759;BME280;10038;42.662;23.278;2023-08-08T07:20:37;164685.31;;;22.67;50.83
19759;BME280;10038;42.662;23.278;2023-08-08T07:23:05;164849.38;;;23.28;50.96
19759;BME280;10038;42.662;23.278;2023-08-08T07:25:34;165059.25;;;24.07;49.07
19759;BME280;10038;42.662;23.278;2023-08-08T07:28:01;165070.09;;;24.11;47.33
19759;BME280;10038;42.662;23.278;2023-08-08T07:30:27;164981.25;;;23.78;46.94
19759;BME280;10038;42.662;23.278;2023-08-08T07:32:54;165245.03;;;24.77;45.58
19759;BME280;10038;42.662;23.278;2023-08-08T07:35:21;165158.91;;;24.44;46.02
19759;BME280;10038;42.662;23.278;2023-08-08T07:37:48;164982.59;;;23.78;46.93
19759;BME280;10038;42.662;23.278;2023-08-08T07:40:15;165125.25;;;24.32;46.18
19759;BME280;10038;42.662;23.278;2023-08-08T07:42:45;164827.88;;;23.20;46.60
19759;BME280;10038;42.662;23.278;2023-08-08T07:45:12;165207.34;;;24.62;45.43
19759;BME280;10038;42.662;23.278;2023-08-08T07:47:39;165328.53;;;25.08;44.14
19759;BME280;10038;42.662;23.278;2023-08-08T07:50:07;165261.25;;;24.83;44.02
19759;BME280;10038;42.662;23.278;2023-08-08T07:52:34;165564.25;;;25.96;43.04
19759;BME280;10038;42.662;23.278;2023-08-08T07:55:02;165533.31;;;25.85;42.11
19759;BME280;10038;42.662;23.278;2023-08-08T07:57:29;165533.31;;;25.85;42.10
19759;BME280;10038;42.662;23.278;2023-08-08T07:59:58;165633.03;;;26.22;41.78
19759;BME280;10038;42.662;23.278;2023-08-08T08:02:30;165750.25;;;26.66;41.55
19759;BME280;10038;42.662;23.278;2023-08-08T08:04:57;165680.19;;;26.40;40.59
19759;BME280;10038;42.662;23.278;2023-08-08T08:07:24;165850.00;;;27.03;39.00
19759;BME280;10038;42.662;23.278;2023-08-08T08:09:51;165643.81;;;26.26;40.50
19759;BME280;10038;42.662;23.278;2023-08-08T08:12:18;165553.50;;;25.92;42.12
19759;BME280;10038;42.662;23.278;2023-08-08T08:14:45;165340.66;;;25.12;43.14
19759;BME280;10038;42.662;23.278;2023-08-08T08:17:14;165180.44;;;24.52;44.15
19759;BME280;10038;42.662;23.278;2023-08-08T08:19:41;165439.00;;;25.49;42.55
19759;BME280;10038;42.662;23.278;2023-08-08T08:22:08;165570.97;;;25.99;42.51
19759;BME280;10038;42.662;23.278;2023-08-08T08:24:35;165646.50;;;26.27;40.98
19759;BME280;10038;42.662;23.278;2023-08-08T08:27:02;165692.31;;;26.44;40.88
19759;BME280;10038;42.662;23.278;2023-08-08T08:29:29;165809.59;;;26.88;39.57
19759;BME280;10038;42.662;23.278;2023-08-08T08:31:57;165887.75;;;27.17;38.05
19759;BME280;10038;42.662;23.278;2023-08-08T08:34:25;165990.25;;;27.56;38.66
19759;BME280;10038;42.662;23.278;2023-08-08T08:36:52;165754.25;;;26.67;40.08
19759;BME280;10038;42.662;23.278;2023-08-08T08:39:19;165414.72;;;25.40;41.57
19759;BME280;10038;42.662;23.278;2023-08-08T08:41:48;165125.25;;;24.32;42.58
19759;BME280;10038;42.662;23.278;2023-08-08T08:44:16;164775.41;;;23.01;44.06
19759;BME280;10038;42.662;23.278;2023-08-08T08:46:44;165514.41;;;25.77;41.39
19759;BME280;10038;42.662;23.278;2023-08-08T08:49:14;165770.44;;;26.73;41.03
19759;BME280;10038;42.662;23.278;2023-08-08T08:51:45;165881.03;;;27.15;40.01
19759;BME280;10038;42.662;23.278;2023-08-08T08:54:13;166063.06;;;27.83;38.55
19759;BME280;10038;42.662;23.278;2023-08-08T08:56:40;166103.56;;;27.98;38.51
19759;BME280;10038;42.662;23.278;2023-08-08T08:59:08;165918.78;;;27.29;39.58
19759;BME280;10038;42.662;23.278;2023-08-08T09:01:35;165301.63;;;24.98;42.31
19759;BME280;10038;42.662;23.278;2023-08-08T09:04:03;165436.31;;;25.48;41.87
19759;BME280;10038;42.662;23.278;2023-08-08T09:06:32;165738.13;;;26.61;39.63
19759;BME280;10038;42.662;23.278;2023-08-08T09:09:00;165966.03;;;27.46;38.69
19759;BME280;10038;42.662;23.278;2023-08-08T09:11:28;165581.78;;;26.03;40.39
19759;BME280;10038;42.662;23.278;2023-08-08T09:13:54;166052.31;;;27.79;38.13
19759;BME280;10038;42.662;23.278;2023-08-08T09:16:21;165995.69;;;27.58;36.96
19759;BME280;10038;42.662;23.278;2023-08-08T09:18:50;165967.34;;;27.47;37.05
19759;BME280;10038;42.662;23.278;2023-08-08T09:21:18;165951.19;;;27.41;37.14
19759;BME280;10038;42.662;23.278;2023-08-08T09:23:45;166250.63;;;28.53;35.81
19759;BME280;10038;42.662;23.278;2023-08-08T09:26:14;165247.75;;;24.78;42.53
19759;BME280;10038;42.662;23.278;2023-08-08T09:28:42;164774.06;;;23.00;43.66
19759;BME280;10038;42.662;23.278;2023-08-08T09:31:09;165358.16;;;25.19;42.00
19759;BME280;10038;42.662;23.278;2023-08-08T09:33:38;165970.06;;;27.48;39.14
19759;BME280;10038;42.662;23.278;2023-08-08T09:36:06;166276.28;;;28.62;36.64
19759;BME280;10038;42.662;23.278;2023-08-08T09:38:33;165949.84;;;27.40;37.56
19759;BME280;10038;42.662;23.278;2023-08-08T09:41:00;165739.44;;;26.62;37.85
19759;BME280;10038;42.662;23.278;2023-08-08T09:43:28;165701.75;;;26.48;39.42
19759;BME280;10038;42.662;23.278;2023-08-08T09:45:55;165970.06;;;27.48;37.59
19759;BME280;10038;42.662;23.278;2023-08-08T09:48:23;166315.44;;;28.77;35.69
19759;BME280;10038;42.662;23.278;2023-08-08T09:50:50;166458.53;;;29.31;33.92
19759;BME280;10038;42.662;23.278;2023-08-08T09:53:18;165846.00;;;27.02;37.35
19759;BME280;10038;42.662;23.278;2023-08-08T09:55:46;166090.06;;;27.93;36.21
19759;BME280;10038;42.662;23.278;2023-08-08T09:58:14;166342.41;;;28.87;34.33
19759;BME280;10038;42.662;23.278;2023-08-08T10:00:42;166455.81;;;29.30;33.33
19759;BME280;10038;42.662;23.278;2023-08-08T10:03:10;166461.22;;;29.32;33.04
19759;BME280;10038;42.662;23.278;2023-08-08T10:05:37;166517.94;;;29.53;32.24
19759;BME280;10038;42.662;23.278;2023-08-08T10:08:04;166140.03;;;28.12;34.94
19759;BME280;10038;42.662;23.278;2023-08-08T10:10:32;166161.59;;;28.20;34.72
19759;BME280;10038;42.662;23.278;2023-08-08T10:12:59;166145.41;;;28.14;34.12
19759;BME280;10038;42.662;23.278;2023-08-08T10:15:27;166312.72;;;28.76;34.10
19759;BME280;10038;42.662;23.278;2023-08-08T10:17:56;166430.13;;;29.20;33.59
19759;BME280;10038;42.662;23.278;2023-08-08T10:20:24;166218.25;;;28.41;34.62
19759;BME280;10038;42.662;23.278;2023-08-08T10:22:52;166458.53;;;29.31;33.95
19759;BME280;10038;42.662;23.278;2023-08-08T10:25:23;166580.00;;;29.76;32.67
19759;BME280;10038;42.662;23.278;2023-08-08T10:28:02;166391.00;;;29.05;33.10
19759;BME280;10038;42.662;23.278;2023-08-08T10:30:41;166072.53;;;27.86;33.51
19759;BME280;10038;42.662;23.278;2023-08-08T10:33:17;166404.50;;;29.10;33.55
19759;BME280;10038;42.662;23.278;2023-08-08T10:35:54;166395.03;;;29.07;33.74
19759;BME280;10038;42.662;23.278;2023-08-08T10:38:22;166463.94;;;29.33;32.57
19759;BME280;10038;42.662;23.278;2023-08-08T10:40:55;166523.31;;;29.55;32.49
19759;BME280;10038;42.662;23.278;2023-08-08T10:43:26;166751.59;;;30.40;32.94
19759;BME280;10038;42.662;23.278;2023-08-08T10:45:57;166434.25;;;29.21;32.57
19759;BME280;10038;42.662;23.278;2023-08-08T10:48:26;166553.03;;;29.66;32.46
19759;BME280;10038;42.662;23.278;2023-08-08T10:50:55;166152.13;;;28.16;33.76
19759;BME280;10038;42.662;23.278;2023-08-08T10:53:23;166358.59;;;28.93;34.17
19759;BME280;10038;42.662;23.278;2023-08-08T10:55:58;166816.41;;;30.64;32.65
19759;BME280;10038;42.662;23.278;2023-08-08T10:58:35;166788.06;;;30.54;31.62
19759;BME280;10038;42.662;23.278;2023-08-08T11:01:03;166581.38;;;29.76;31.98
19759;BME280;10038;42.662;23.278;2023-08-08T11:03:36;166625.97;;;29.93;32.88
19759;BME280;10038;42.662;23.278;2023-08-08T11:06:04;166312.72;;;28.76;34.49
19759;BME280;10038;42.662;23.278;2023-08-08T11:08:32;165994.34;;;27.57;34.99
19759;BME280;10038;42.662;23.278;2023-08-08T11:11:00;166288.47;;;28.67;35.67
19759;BME280;10038;42.662;23.278;2023-08-08T11:13:27;165970.06;;;27.48;35.26
19759;BME280;10038;42.662;23.278;2023-08-08T11:15:56;166247.91;;;28.52;34.19
19759;BME280;10038;42.662;23.278;2023-08-08T11:18:23;166436.97;;;29.22;33.92
19759;BME280;10038;42.662;23.278;2023-08-08T11:20:52;166457.19;;;29.30;33.50
19759;BME280;10038;42.662;23.278;2023-08-08T11:23:18;166196.66;;;28.33;34.50
19759;BME280;10038;42.662;23.278;2023-08-08T11:25:46;166172.41;;;28.24;35.36
19759;BME280;10038;42.662;23.278;2023-08-08T11:28:14;166331.63;;;28.83;34.80
19759;BME280;10038;42.662;23.278;2023-08-08T11:30:43;166224.97;;;28.43;34.04
19759;BME280;10038;42.662;23.278;2023-08-08T11:33:13;166536.81;;;29.60;33.03
19759;BME280;10038;42.662;23.278;2023-08-08T11:35:43;166384.28;;;29.03;33.03
19759;BME280;10038;42.662;23.278;2023-08-08T11:38:14;166347.84;;;28.89;33.83
19759;BME280;10038;42.662;23.278;2023-08-08T11:40:41;166295.22;;;28.70;34.62
19759;BME280;10038;42.662;23.278;2023-08-08T11:43:09;166501.72;;;29.47;33.76
19759;BME280;10038;42.662;23.278;2023-08-08T11:45:37;166667.81;;;30.09;32.85
19759;BME280;10038;42.662;23.278;2023-08-08T11:48:04;166548.94;;;29.64;33.11
19759;BME280;10038;42.662;23.278;2023-08-08T11:50:31;166592.19;;;29.80;32.96
19759;BME280;10038;42.662;23.278;2023-08-08T11:52:59;166580.00;;;29.76;31.71
19759;BME280;10038;42.662;23.278;2023-08-08T11:55:30;166863.72;;;30.82;32.18
19759;BME280;10038;42.662;23.278;2023-08-08T11:57:57;166952.88;;;31.15;31.09
19759;BME280;10038;42.662;23.278;2023-08-08T12:00:29;167004.22;;;31.34;31.50
19759;BME280;10038;42.662;23.278;2023-08-08T12:02:57;166711.00;;;30.25;31.64
19759;BME280;10038;42.662;23.278;2023-08-08T12:05:24;166681.31;;;30.14;32.19
19759;BME280;10038;42.662;23.278;2023-08-08T12:07:52;166385.63;;;29.03;33.76
19759;BME280;10038;42.662;23.278;2023-08-08T12:10:20;166488.25;;;29.42;33.62
19759;BME280;10038;42.662;23.278;2023-08-08T12:12:54;166482.81;;;29.40;33.58
19759;BME280;10038;42.662;23.278;2023-08-08T12:15:22;166658.34;;;30.05;32.17
19759;BME280;10038;42.662;23.278;2023-08-08T12:17:49;166650.28;;;30.02;32.35
19759;BME280;10038;42.662;23.278;2023-08-08T12:20:16;166735.34;;;30.34;32.49
19759;BME280;10038;42.662;23.278;2023-08-08T12:22:43;166612.47;;;29.88;32.46
19759;BME280;10038;42.662;23.278;2023-08-08T12:25:10;166634.06;;;29.96;32.75
19759;BME280;10038;42.662;23.278;2023-08-08T12:27:38;166655.69;;;30.04;33.11
19759;BME280;10038;42.662;23.278;2023-08-08T12:30:07;166604.38;;;29.85;32.32
19759;BME280;10038;42.662;23.278;2023-08-08T12:32:34;166670.53;;;30.10;32.25
19759;BME280;10038;42.662;23.278;2023-08-08T12:35:01;166220.94;;;28.42;33.60
19759;BME280;10038;42.662;23.278;2023-08-08T12:37:28;166526.00;;;29.56;33.53
19759;BME280;10038;42.662;23.278;2023-08-08T12:39:55;166377.53;;;29.00;33.27
19759;BME280;10038;42.662;23.278;2023-08-08T12:42:22;166474.69;;;29.37;34.59